Time;durP1;ratioP1;P1;durP2;ratioP2;P2;SDS_P1;SDS_P2;PMS_P1;PMS_P2;Temp;Humidity;BMP_temperature;BMP_pressure;BME280_temperature;BME280_humidity;BME280_pressure;Samples;Min_cycle;Max_cycle;Signal;HPM_P1;HPM_P2
2021/08/11 00:00:59;;;;;;;;;;;;;;;19.68;70.23;98304.97;1752592;80;21995;-86
2021/08/11 00:03:25;;;;;;;;;;;;;;;19.56;70.35;98299.16;1752668;80;25920;-86
2021/08/11 00:05:54;;;;;;;;;;;;;;;19.50;70.49;98300.66;1755629;80;20915;-86
2021/08/11 00:08:20;;;;;;;;;;;;;;;19.54;70.65;98298.49;1739547;80;20206;-86
2021/08/11 00:10:46;;;;;;;;;;;;;;;19.54;70.83;98298.00;1744739;80;20213;-85
2021/08/11 00:13:13;;;;;;;;;;;;;;;19.48;70.92;98299.98;1747376;80;20927;-86
2021/08/11 00:15:39;;;;;;;;;;;;;;;19.45;71.04;98299.50;1750998;80;26201;-86
2021/08/11 00:18:05;;;;;;;;;;;;;;;19.40;71.18;98285.37;1743297;81;24539;-86
2021/08/11 00:20:31;;;;;;;;;;;;;;;19.41;71.32;98288.86;1738693;81;20211;-86
2021/08/11 00:22:57;;;;;;;;;;;;;;;19.56;71.45;98286.72;1746161;81;24977;-86
2021/08/11 00:25:26;;;;;;;;;;;;;;;19.70;71.56;98285.70;1749637;80;22067;-85
2021/08/11 00:27:52;;;;;;;;;;;;;;;19.75;71.60;98288.67;1748121;81;25962;-86
2021/08/11 00:30:23;;;;;;;;;;;;;;;19.81;71.66;98285.34;1749180;81;24670;-86
2021/08/11 00:32:48;;;;;;;;;;;;;;;19.85;71.69;98284.03;1737474;81;20238;-86
2021/08/11 00:35:14;;;;;;;;;;;;;;;19.79;71.70;98285.54;1749710;80;25018;-86
2021/08/11 00:37:40;;;;;;;;;;;;;;;19.68;71.69;98282.40;1749927;80;20926;-85
2021/08/11 00:40:08;;;;;;;;;;;;;;;19.72;71.76;98283.71;1749962;80;20998;-85
2021/08/11 00:42:34;;;;;;;;;;;;;;;19.78;71.81;98283.88;1754751;80;24373;-86
2021/08/11 00:45:02;;;;;;;;;;;;;;;19.83;71.86;98278.05;1756085;80;20478;-86
2021/08/11 00:47:37;;;;;;;;;;;;;;;19.79;71.94;98274.91;1754568;80;25052;-86
2021/08/11 00:50:04;;;;;;;;;;;;;;;19.71;71.98;98274.08;1750798;80;22792;-86
2021/08/11 00:52:30;;;;;;;;;;;;;;;19.75;72.10;98268.76;1756574;80;26207;-87
2021/08/11 00:54:57;;;;;;;;;;;;;;;19.80;72.15;98274.42;1754724;80;20939;-86
2021/08/11 00:57:26;;;;;;;;;;;;;;;19.75;72.20;98272.25;1757170;80;20446;-86
2021/08/11 00:59:57;;;;;;;;;;;;;;;19.71;72.27;98274.91;1752491;80;25738;-87
2021/08/11 01:02:21;;;;;;;;;;;;;;;19.66;72.33;98277.75;1754385;80;22032;-87
2021/08/11 01:04:51;;;;;;;;;;;;;;;19.66;72.38;98275.09;1755057;80;25963;-87
2021/08/11 01:07:20;;;;;;;;;;;;;;;19.65;72.43;98278.23;1754566;80;25104;-87
2021/08/11 01:09:47;;;;;;;;;;;;;;;19.63;72.45;98281.58;1753002;80;20230;-87
2021/08/11 01:12:13;;;;;;;;;;;;;;;19.65;72.48;98290.19;1753939;80;25000;-87
2021/08/11 01:14:41;;;;;;;;;;;;;;;19.64;72.53;98286.70;1729354;81;22118;-87
2021/08/11 01:17:08;;;;;;;;;;;;;;;19.53;72.59;98288.37;1751451;80;26671;-87
2021/08/11 01:19:36;;;;;;;;;;;;;;;19.36;72.59;98297.33;1749283;80;24529;-86
2021/08/11 01:22:07;;;;;;;;;;;;;;;19.27;72.67;98291.66;1750429;80;20159;-86
2021/08/11 01:24:43;;;;;;;;;;;;;;;19.15;72.73;98285.84;1752514;80;24958;-86
2021/08/11 01:27:14;;;;;;;;;;;;;;;19.05;72.82;98289.16;1752345;80;22081;-86
2021/08/11 01:29:59;;;;;;;;;;;;;;;18.96;72.94;98284.01;1749920;80;26235;-86
2021/08/11 01:32:33;;;;;;;;;;;;;;;18.90;73.08;98280.19;1749657;81;24658;-87
2021/08/11 01:35:01;;;;;;;;;;;;;;;18.86;73.21;98281.52;1753066;80;20211;-86
2021/08/11 01:37:29;;;;;;;;;;;;;;;19.00;73.37;98278.70;1755295;80;25085;-87
2021/08/11 01:39:59;;;;;;;;;;;;;;;19.15;73.51;98279.21;1760939;80;22103;-86
2021/08/11 01:42:32;;;;;;;;;;;;;;;19.14;73.64;98284.21;1758786;80;26630;-87
2021/08/11 01:45:09;;;;;;;;;;;;;;;19.24;73.73;98290.67;1761085;80;24450;-87
2021/08/11 01:47:55;;;;;;;;;;;;;;;19.34;73.83;98291.34;1755923;80;20229;-87
2021/08/11 01:50:22;;;;;;;;;;;;;;;19.37;73.89;98288.34;1774683;80;25064;-87
2021/08/11 01:52:50;;;;;;;;;;;;;;;19.25;73.88;98296.33;1773536;80;21966;-87
2021/08/11 01:55:16;;;;;;;;;;;;;;;19.13;73.92;98299.80;1779987;80;26062;-87
2021/08/11 01:57:44;;;;;;;;;;;;;;;19.17;73.99;98301.12;1776384;80;24502;-87
2021/08/11 02:00:11;;;;;;;;;;;;;;;19.21;74.08;98309.56;1784291;80;20244;-87
2021/08/11 02:02:40;;;;;;;;;;;;;;;19.22;74.15;98297.96;1773863;80;25064;-86
2021/08/11 02:05:06;;;;;;;;;;;;;;;19.24;74.23;98292.00;1720721;83;22184;-86
2021/08/11 02:07:33;;;;;;;;;;;;;;;19.28;74.25;98299.96;1745698;81;26133;-86
2021/08/11 02:10:00;;;;;;;;;;;;;;;19.28;74.28;98288.02;1742819;81;24537;-86
2021/08/11 02:12:27;;;;;;;;;;;;;;;19.27;74.29;98290.83;1756701;81;20502;-86
2021/08/11 02:14:54;;;;;;;;;;;;;;;19.20;74.31;98287.50;1756248;81;25150;-86
2021/08/11 02:17:24;;;;;;;;;;;;;;;19.21;74.34;98287.84;1755814;80;22073;-87
2021/08/11 02:19:50;;;;;;;;;;;;;;;19.20;74.38;98283.53;1757036;81;26038;-87
2021/08/11 02:22:18;;;;;;;;;;;;;;;19.19;74.42;98284.55;1756493;81;25153;-87
2021/08/11 02:24:46;;;;;;;;;;;;;;;19.22;74.47;98286.02;1759033;81;20413;-87
2021/08/11 02:27:13;;;;;;;;;;;;;;;19.22;74.51;98288.19;1757034;81;25406;-87
2021/08/11 02:29:48;;;;;;;;;;;;;;;19.21;74.53;98287.84;1754088;81;22241;-86
2021/08/11 02:32:25;;;;;;;;;;;;;;;19.21;74.57;98283.03;1733422;81;26859;-87
2021/08/11 02:35:02;;;;;;;;;;;;;;;19.19;74.61;98282.39;1759565;80;24493;-87
2021/08/11 02:37:31;;;;;;;;;;;;;;;19.16;74.61;98290.66;1746971;81;20366;-87
2021/08/11 02:40:06;;;;;;;;;;;;;;;19.07;74.63;98294.30;1732609;82;20778;-87
2021/08/11 02:42:39;;;;;;;;;;;;;;;19.00;74.69;98298.11;1736466;81;22159;-87
2021/08/11 02:45:07;;;;;;;;;;;;;;;18.96;74.76;98301.25;1689880;82;26063;-87
2021/08/11 02:47:35;;;;;;;;;;;;;;;18.92;74.79;98296.78;1717069;82;24543;-87
2021/08/11 02:50:06;;;;;;;;;;;;;;;18.86;74.82;98297.42;1739522;81;20168;-87
2021/08/11 02:52:32;;;;;;;;;;;;;;;18.80;74.85;98295.42;1743676;82;25033;-87
2021/08/11 02:54:58;;;;;;;;;;;;;;;18.72;74.90;98294.05;1740542;81;20327;-85
2021/08/11 02:57:29;;;;;;;;;;;;;;;18.64;74.96;98300.67;1742761;82;22845;-86
2021/08/11 02:59:56;;;;;;;;;;;;;;;18.55;75.03;98297.16;1743907;81;25278;-85
2021/08/11 03:02:24;;;;;;;;;;;;;;;18.48;75.09;98303.23;1746376;82;20251;-85
2021/08/11 03:04:50;;;;;;;;;;;;;;;18.45;75.18;98312.33;1738665;81;25030;-85
2021/08/11 03:07:16;;;;;;;;;;;;;;;18.40;75.26;98317.27;1744224;81;22004;-86
2021/08/11 03:09:45;;;;;;;;;;;;;;;18.39;75.33;98317.77;1746189;81;25957;-85
2021/08/11 03:12:12;;;;;;;;;;;;;;;18.37;75.42;98315.79;1721084;82;24475;-85
2021/08/11 03:14:39;;;;;;;;;;;;;;;18.36;75.48;98306.17;1724909;82;20584;-85
2021/08/11 03:17:10;;;;;;;;;;;;;;;18.37;75.54;98307.01;1736682;82;25121;-85
2021/08/11 03:19:39;;;;;;;;;;;;;;;18.37;75.58;98314.95;1730482;82;22082;-86
2021/08/11 03:22:07;;;;;;;;;;;;;;;18.31;75.61;98313.77;1725793;82;26826;-86
2021/08/11 03:24:33;;;;;;;;;;;;;;;18.28;75.66;98313.23;1736816;82;24555;-86
2021/08/11 03:26:59;;;;;;;;;;;;;;;18.28;75.71;98308.77;1729490;82;20238;-86
2021/08/11 03:29:25;;;;;;;;;;;;;;;18.28;75.77;98320.69;1735006;82;25558;-85
2021/08/11 03:31:51;;;;;;;;;;;;;;;18.29;75.80;98317.06;1709767;83;21950;-85
2021/08/11 03:34:30;;;;;;;;;;;;;;;18.28;75.81;98319.38;1709313;83;26787;-86
2021/08/11 03:36:56;;;;;;;;;;;;;;;18.27;75.79;98312.93;1735594;82;24617;-86
2021/08/11 03:39:22;;;;;;;;;;;;;;;18.26;75.82;98320.53;1763613;80;20233;-86
2021/08/11 03:41:50;;;;;;;;;;;;;;;18.16;75.82;98316.69;1763246;81;20508;-86
2021/08/11 03:44:25;;;;;;;;;;;;;;;18.11;75.83;98311.52;1758318;80;21976;-86
2021/08/11 03:46:52;;;;;;;;;;;;;;;18.03;75.85;98308.32;1729850;82;23132;-86
2021/08/11 03:49:22;;;;;;;;;;;;;;;18.02;75.90;98307.15;1734832;81;24322;-85
2021/08/11 03:51:51;;;;;;;;;;;;;;;18.07;75.95;98303.53;1725505;82;20224;-85
2021/08/11 03:54:23;;;;;;;;;;;;;;;18.10;76.02;98317.80;1760625;80;25703;-85
2021/08/11 03:56:49;;;;;;;;;;;;;;;18.01;76.02;98316.91;1759015;80;22003;-85
2021/08/11 03:59:15;;;;;;;;;;;;;;;17.97;76.05;98320.86;1759901;80;25971;-86
2021/08/11 04:01:41;;;;;;;;;;;;;;;17.96;76.10;98324.49;1758845;80;24524;-86
2021/08/11 04:04:07;;;;;;;;;;;;;;;17.97;76.15;98319.05;1762574;80;20213;-86
2021/08/11 04:06:33;;;;;;;;;;;;;;;18.09;76.20;98321.43;1758693;80;25236;-86
2021/08/11 04:08:59;;;;;;;;;;;;;;;18.18;76.23;98317.34;1758161;80;22065;-86
2021/08/11 04:11:25;;;;;;;;;;;;;;;18.27;76.25;98319.03;1756859;80;25772;-85
2021/08/11 04:13:51;;;;;;;;;;;;;;;18.35;76.26;98316.92;1762201;80;25223;-85
2021/08/11 04:16:17;;;;;;;;;;;;;;;18.41;76.26;98310.99;1760027;80;20219;-85
2021/08/11 04:18:43;;;;;;;;;;;;;;;18.42;76.27;98316.63;1759299;80;24973;-86
2021/08/11 04:21:10;;;;;;;;;;;;;;;18.45;76.31;98324.25;1729061;81;38174;-86
2021/08/11 04:23:36;;;;;;;;;;;;;;;18.46;76.32;98319.30;1763797;80;26631;-86
2021/08/11 04:26:02;;;;;;;;;;;;;;;18.45;76.34;98330.88;1762519;80;20639;-86
2021/08/11 04:28:32;;;;;;;;;;;;;;;18.45;76.33;98336.67;1760717;81;20177;-86
2021/08/11 04:30:58;;;;;;;;;;;;;;;18.42;76.38;98333.86;1758857;80;25866;-85
2021/08/11 04:33:30;;;;;;;;;;;;;;;18.30;76.37;98337.27;1761289;80;20277;-86
2021/08/11 04:35:56;;;;;;;;;;;;;;;18.20;76.35;98345.00;1753552;80;25975;-86
2021/08/11 04:38:27;;;;;;;;;;;;;;;18.21;76.40;98340.88;1758690;80;24448;-86
2021/08/11 04:40:53;;;;;;;;;;;;;;;18.33;76.47;98347.55;1753881;80;20235;-85
2021/08/11 04:43:19;;;;;;;;;;;;;;;18.47;76.52;98350.11;1722411;82;24975;-85
2021/08/11 04:45:45;;;;;;;;;;;;;;;18.59;76.56;98353.34;1742691;82;21988;-85
2021/08/11 04:48:11;;;;;;;;;;;;;;;18.66;76.59;98349.88;1749630;82;21029;-85
2021/08/11 04:50:37;;;;;;;;;;;;;;;18.72;76.62;98357.69;1750862;81;24434;-85
2021/08/11 04:53:04;;;;;;;;;;;;;;;18.75;76.66;98355.56;1755585;81;20209;-85
2021/08/11 04:55:30;;;;;;;;;;;;;;;18.77;76.69;98354.89;1723482;82;25003;-85
2021/08/11 04:58:00;;;;;;;;;;;;;;;18.79;76.70;98363.52;1725348;82;20258;-85
2021/08/11 05:00:25;;;;;;;;;;;;;;;18.85;76.73;98362.55;1714894;82;26065;-85
2021/08/11 05:02:52;;;;;;;;;;;;;;;18.90;76.76;98355.77;1723701;82;24392;-85
2021/08/11 05:05:19;;;;;;;;;;;;;;;18.93;76.76;98361.26;1754784;81;20330;-85
2021/08/11 05:07:45;;;;;;;;;;;;;;;18.94;76.80;98361.08;1749644;81;25108;-85
2021/08/11 05:10:11;;;;;;;;;;;;;;;19.03;76.85;98369.41;1720104;83;22028;-85
2021/08/11 05:12:38;;;;;;;;;;;;;;;19.09;76.92;98367.94;1757599;80;27024;-85
2021/08/11 05:15:05;;;;;;;;;;;;;;;19.17;76.95;98366.12;1718897;82;24552;-85
2021/08/11 05:17:31;;;;;;;;;;;;;;;19.25;76.98;98363.16;1711974;82;20318;-85
2021/08/11 05:19:57;;;;;;;;;;;;;;;19.32;77.00;98364.14;1759047;80;24937;-85
2021/08/11 05:22:24;;;;;;;;;;;;;;;19.35;77.04;98369.14;1764075;80;21909;-86
2021/08/11 05:24:50;;;;;;;;;;;;;;;19.38;77.06;98365.64;1770608;80;25978;-86
2021/08/11 05:27:17;;;;;;;;;;;;;;;19.42;77.10;98367.50;1765746;80;24509;-86
2021/08/11 05:29:44;;;;;;;;;;;;;;;19.43;77.13;98372.62;1764616;80;20275;-86
2021/08/11 05:32:11;;;;;;;;;;;;;;;19.47;77.17;98366.53;1747624;80;25142;-86
2021/08/11 05:34:37;;;;;;;;;;;;;;;19.52;77.21;98365.54;1744952;80;21951;-86
2021/08/11 05:37:03;;;;;;;;;;;;;;;19.56;77.25;98362.38;1732701;82;25924;-86
2021/08/11 05:39:29;;;;;;;;;;;;;;;19.62;77.27;98363.05;1757440;80;24502;-86
2021/08/11 05:42:02;;;;;;;;;;;;;;;19.66;77.30;98358.23;1759104;80;20580;-86
2021/08/11 05:44:30;;;;;;;;;;;;;;;19.71;77.28;98360.38;1755234;80;25082;-85
2021/08/11 05:46:57;;;;;;;;;;;;;;;19.68;77.27;98369.53;1759801;80;22002;-85
2021/08/11 05:49:23;;;;;;;;;;;;;;;19.65;77.24;98368.52;1762994;80;26048;-86
2021/08/11 05:51:49;;;;;;;;;;;;;;;19.67;77.23;98363.05;1759916;81;24389;-85
2021/08/11 05:54:15;;;;;;;;;;;;;;;19.75;77.24;98359.88;1746727;80;21562;-89
2021/08/11 05:56:42;;;;;;;;;;;;;;;19.82;77.26;98366.69;1736838;82;25276;-88
2021/08/11 05:59:09;;;;;;;;;;;;;;;19.85;77.30;98373.84;1724795;82;20226;-88
2021/08/11 06:01:35;;;;;;;;;;;;;;;19.92;77.35;98383.28;1721002;83;26030;-87
2021/08/11 06:04:01;;;;;;;;;;;;;;;19.92;77.37;98383.28;1749608;80;24349;-87
2021/08/11 06:06:28;;;;;;;;;;;;;;;19.89;77.43;98385.78;1731622;82;20309;-88
2021/08/11 06:08:55;;;;;;;;;;;;;;;19.84;77.46;98384.13;1688345;83;25098;-86
2021/08/11 06:11:23;;;;;;;;;;;;;;;19.87;77.49;98386.94;1705320;81;22069;-86
2021/08/11 06:13:49;;;;;;;;;;;;;;;19.87;77.51;98378.47;1712081;82;26838;-86
2021/08/11 06:16:15;;;;;;;;;;;;;;;19.85;77.55;98379.16;1722127;81;24427;-87
2021/08/11 06:18:41;;;;;;;;;;;;;;;19.90;77.57;98382.63;1712646;81;20234;-87
2021/08/11 06:21:07;;;;;;;;;;;;;;;19.98;77.56;98387.43;1712079;82;24924;-86
2021/08/11 06:23:33;;;;;;;;;;;;;;;20.04;77.59;98381.94;1743094;82;21813;-86
2021/08/11 06:25:59;;;;;;;;;;;;;;;20.08;77.53;98383.26;1739314;80;21175;-86
2021/08/11 06:28:25;;;;;;;;;;;;;;;20.09;77.46;98388.91;1743096;80;24557;-86
2021/08/11 06:30:51;;;;;;;;;;;;;;;20.10;77.38;98390.58;1754509;80;20302;-86
2021/08/11 06:33:18;;;;;;;;;;;;;;;20.10;77.35;98384.42;1709706;83;25020;-86
2021/08/11 06:35:44;;;;;;;;;;;;;;;20.13;77.37;98394.21;1749167;80;21898;-87
2021/08/11 06:38:10;;;;;;;;;;;;;;;20.23;77.41;98389.57;1749900;81;26047;-87
2021/08/11 06:40:36;;;;;;;;;;;;;;;20.27;77.39;98396.20;1757511;80;20307;-85
2021/08/11 06:43:11;;;;;;;;;;;;;;;20.34;77.36;98390.58;1753948;80;20310;-88
2021/08/11 06:45:37;;;;;;;;;;;;;;;20.35;77.25;98392.70;1753528;80;25044;-88
2021/08/11 06:48:04;;;;;;;;;;;;;;;20.20;77.04;98401.84;1756711;80;20330;-88
2021/08/11 06:50:33;;;;;;;;;;;;;;;20.29;76.95;98402.68;1755715;80;26078;-88
2021/08/11 06:52:59;;;;;;;;;;;;;;;20.39;76.94;98396.70;1757082;80;24423;-88
2021/08/11 06:55:25;;;;;;;;;;;;;;;20.48;76.89;98393.52;1757248;80;20834;-88
2021/08/11 06:57:51;;;;;;;;;;;;;;;20.55;76.77;98390.52;1757916;80;20296;-88
2021/08/11 07:00:17;;;;;;;;;;;;;;;20.62;76.65;98398.94;1755331;80;22044;-88
2021/08/11 07:02:47;;;;;;;;;;;;;;;20.60;76.54;98396.14;1758671;80;25778;-88
2021/08/11 07:05:14;;;;;;;;;;;;;;;20.66;76.47;98400.78;1756943;80;24434;-88
2021/08/11 07:07:41;;;;;;;;;;;;;;;20.61;76.32;98396.48;1755199;80;20501;-88
2021/08/11 07:10:14;;;;;;;;;;;;;;;20.67;76.24;98398.45;1755527;80;25896;-88
2021/08/11 07:12:41;;;;;;;;;;;;;;;20.77;76.18;98406.56;1754988;80;21951;-89
2021/08/11 07:15:14;;;;;;;;;;;;;;;20.81;76.09;98402.55;1753506;80;26751;-89
2021/08/11 07:17:49;;;;;;;;;;;;;;;20.90;76.04;98407.32;1756025;80;24441;-89
2021/08/11 07:20:16;;;;;;;;;;;;;;;20.95;75.95;98407.63;1755088;80;20196;-88
2021/08/11 07:22:42;;;;;;;;;;;;;;;21.00;75.84;98405.80;1750256;81;25111;-88
2021/08/11 07:25:08;;;;;;;;;;;;;;;21.06;75.74;98400.59;1756107;80;20361;-88
2021/08/11 07:27:37;;;;;;;;;;;;;;;21.15;75.65;98399.59;1751032;80;26165;-88
2021/08/11 07:30:06;;;;;;;;;;;;;;;21.22;75.50;98405.06;1754738;80;24552;-88
2021/08/11 07:32:38;;;;;;;;;;;;;;;21.24;75.29;98411.02;1750912;81;20218;-88
2021/08/11 07:35:04;;;;;;;;;;;;;;;21.27;75.09;98408.02;1748092;80;25024;-88
2021/08/11 07:37:30;;;;;;;;;;;;;;;21.36;74.95;98410.95;1750232;81;21960;-88
2021/08/11 07:39:57;;;;;;;;;;;;;;;21.40;74.78;98409.59;1748168;80;20918;-89
2021/08/11 07:42:23;;;;;;;;;;;;;;;21.47;74.56;98412.38;1709322;82;24492;-88
2021/08/11 07:44:50;;;;;;;;;;;;;;;21.47;74.41;98407.89;1707981;83;20564;-88
2021/08/11 07:47:16;;;;;;;;;;;;;;;21.38;74.21;98408.13;1746731;80;24812;-88
2021/08/11 07:49:44;;;;;;;;;;;;;;;21.31;74.04;98401.33;1704159;82;20264;-88
2021/08/11 07:52:10;;;;;;;;;;;;;;;21.37;73.93;98406.46;1743701;80;26004;-88
2021/08/11 07:54:36;;;;;;;;;;;;;;;21.47;73.92;98401.23;1743346;80;20319;-88
2021/08/11 07:57:02;;;;;;;;;;;;;;;21.52;73.83;98406.02;1761085;80;20801;-88
2021/08/11 07:59:40;;;;;;;;;;;;;;;21.61;73.81;98404.95;1712731;82;24969;-88
2021/08/11 08:02:11;;;;;;;;;;;;;;;21.71;73.77;98406.90;1742716;80;22000;-88
2021/08/11 08:04:37;;;;;;;;;;;;;;;21.76;73.70;98410.36;1755919;80;26078;-88
2021/08/11 08:07:05;;;;;;;;;;;;;;;21.85;73.64;98409.27;1757444;81;24447;-88
2021/08/11 08:09:31;;;;;;;;;;;;;;;21.92;73.60;98409.72;1711167;83;20639;-88
2021/08/11 08:11:57;;;;;;;;;;;;;;;21.97;73.54;98408.71;1719616;83;24944;-88
2021/08/11 08:14:23;;;;;;;;;;;;;;;22.02;73.45;98410.83;1741466;80;22674;-86
2021/08/11 08:16:50;;;;;;;;;;;;;;;22.05;73.31;98415.28;1740282;81;26279;-86
2021/08/11 08:19:16;;;;;;;;;;;;;;;22.12;73.20;98416.73;1754529;80;24421;-86
2021/08/11 08:21:42;;;;;;;;;;;;;;;22.19;73.13;98415.52;1748627;80;20364;-86
2021/08/11 08:24:08;;;;;;;;;;;;;;;22.21;73.00;98414.30;1754432;80;25006;-86
2021/08/11 08:26:34;;;;;;;;;;;;;;;22.26;72.92;98414.59;1761451;80;21923;-86
2021/08/11 08:29:03;;;;;;;;;;;;;;;22.37;72.80;98420.81;1760858;81;26780;-86
2021/08/11 08:31:29;;;;;;;;;;;;;;;22.49;72.72;98419.86;1727234;82;24418;-86
2021/08/11 08:33:56;;;;;;;;;;;;;;;22.58;72.59;98421.45;1689016;83;20293;-86
2021/08/11 08:36:22;;;;;;;;;;;;;;;22.66;72.49;98419.18;1725214;82;24948;-86
2021/08/11 08:38:48;;;;;;;;;;;;;;;22.72;72.29;98429.98;1708799;82;21915;-86
2021/08/11 08:41:14;;;;;;;;;;;;;;;22.72;72.06;98427.82;1714162;83;21015;-86
2021/08/11 08:43:40;;;;;;;;;;;;;;;22.68;71.83;98419.34;1715600;83;20893;-86
2021/08/11 08:46:08;;;;;;;;;;;;;;;22.72;71.68;98424.65;1716304;83;20504;-86
2021/08/11 08:48:36;;;;;;;;;;;;;;;22.81;71.57;98418.19;1712166;83;24986;-86
2021/08/11 08:51:03;;;;;;;;;;;;;;;22.95;71.46;98424.55;1716066;83;21963;-86
2021/08/11 08:53:31;;;;;;;;;;;;;;;23.04;71.32;98427.94;1715664;83;26785;-86
2021/08/11 08:55:57;;;;;;;;;;;;;;;23.09;71.10;98413.52;1715200;83;24506;-86
2021/08/11 08:58:23;;;;;;;;;;;;;;;23.13;70.93;98410.28;1718517;83;20222;-86
2021/08/11 09:01:04;;;;;;;;;;;;;;;23.21;70.80;98404.02;1715946;83;24991;-86
2021/08/11 09:03:25;;;;;;;;;;;;;;;23.27;70.65;98409.95;1736306;81;22122;-86
2021/08/11 09:05:51;;;;;;;;;;;;;;;23.29;70.52;98415.40;1732433;81;25870;-86
2021/08/11 09:08:17;;;;;;;;;;;;;;;23.35;70.32;98414.65;1732836;81;20364;-85
2021/08/11 09:10:43;;;;;;;;;;;;;;;23.42;70.19;98414.73;1742398;82;20883;-85
2021/08/11 09:13:15;;;;;;;;;;;;;;;23.49;70.01;98419.67;1706503;83;25130;-85
2021/08/11 09:15:45;;;;;;;;;;;;;;;23.57;69.84;98418.71;1741346;81;21976;-85
2021/08/11 09:18:27;;;;;;;;;;;;;;;23.64;69.62;98414.27;1735605;81;26222;-85
2021/08/11 09:21:09;;;;;;;;;;;;;;;23.66;69.45;98417.59;1735061;81;24647;-86
2021/08/11 09:23:35;;;;;;;;;;;;;;;23.77;69.36;98417.09;1727145;81;20224;-86
2021/08/11 09:26:05;;;;;;;;;;;;;;;23.86;69.20;98420.44;1720802;81;24966;-85
2021/08/11 09:28:40;;;;;;;;;;;;;;;23.99;69.08;98417.91;1739861;81;22794;-85
2021/08/11 09:31:20;;;;;;;;;;;;;;;24.12;68.96;98421.50;1736760;81;26091;-85
2021/08/11 09:33:53;;;;;;;;;;;;;;;24.20;68.67;98419.23;1732986;82;25348;-85
2021/08/11 09:36:19;;;;;;;;;;;;;;;24.22;68.31;98418.52;1738169;82;20274;-85
2021/08/11 09:39:03;;;;;;;;;;;;;;;24.31;68.05;98422.72;1734973;82;25030;-85
2021/08/11 09:41:32;;;;;;;;;;;;;;;24.39;67.80;98417.20;1716408;82;21839;-85
2021/08/11 09:44:00;;;;;;;;;;;;;;;24.45;67.57;98420.95;1716986;81;25994;-86
2021/08/11 09:46:30;;;;;;;;;;;;;;;24.53;67.27;98422.16;1696609;83;24543;-85
2021/08/11 09:48:58;;;;;;;;;;;;;;;24.48;66.79;98424.59;1725320;82;20243;-85
2021/08/11 09:51:24;;;;;;;;;;;;;;;24.50;66.47;98426.03;1723526;82;24996;-85
2021/08/11 09:53:50;;;;;;;;;;;;;;;24.52;66.20;98416.48;1726548;83;21932;-85
2021/08/11 09:56:16;;;;;;;;;;;;;;;24.43;65.74;98417.16;1722990;83;26143;-85
2021/08/11 09:58:45;;;;;;;;;;;;;;;24.37;65.38;98417.10;1726644;83;21340;-85
2021/08/11 10:01:14;;;;;;;;;;;;;;;24.36;65.05;98422.13;1724573;83;20292;-85
2021/08/11 10:03:59;;;;;;;;;;;;;;;24.44;64.74;98420.12;1719854;82;24949;-85
2021/08/11 10:06:30;;;;;;;;;;;;;;;24.51;64.48;98426.35;1722695;83;22968;-86
2021/08/11 10:09:15;;;;;;;;;;;;;;;24.63;64.15;98417.27;1726368;83;26034;-86
2021/08/11 10:11:43;;;;;;;;;;;;;;;24.81;64.03;98411.41;1723803;82;24514;-86
2021/08/11 10:14:12;;;;;;;;;;;;;;;24.96;63.79;98420.98;1722131;83;20328;-86
2021/08/11 10:16:45;;;;;;;;;;;;;;;25.02;63.39;98419.88;1725294;82;25113;-86
2021/08/11 10:19:22;;;;;;;;;;;;;;;25.04;63.00;98415.16;1726403;82;22013;-85
2021/08/11 10:21:51;;;;;;;;;;;;;;;25.17;62.73;98420.55;1725593;83;26808;-85
2021/08/11 10:24:21;;;;;;;;;;;;;;;25.22;62.44;98424.80;1723797;82;24589;-85
2021/08/11 10:26:51;;;;;;;;;;;;;;;25.26;62.12;98418.83;1725258;82;20493;-85
2021/08/11 10:29:16;;;;;;;;;;;;;;;25.35;61.88;98409.61;1717480;83;25083;-85
2021/08/11 10:31:43;;;;;;;;;;;;;;;25.47;61.59;98414.38;1727297;82;22171;-86
2021/08/11 10:34:10;;;;;;;;;;;;;;;25.56;61.36;98410.00;1725259;83;26035;-85
2021/08/11 10:36:36;;;;;;;;;;;;;;;25.58;60.97;98407.13;1725890;82;24457;-85
2021/08/11 10:39:02;;;;;;;;;;;;;;;25.66;60.71;98408.25;1722780;83;20809;-85
2021/08/11 10:41:30;;;;;;;;;;;;;;;25.75;60.51;98407.02;1740750;82;24951;-86
2021/08/11 10:43:58;;;;;;;;;;;;;;;25.60;59.96;98403.70;1727877;82;22225;-85
2021/08/11 10:46:32;;;;;;;;;;;;;;;25.39;59.47;98408.68;1741394;81;26839;-85
2021/08/11 10:49:03;;;;;;;;;;;;;;;25.26;59.17;98409.45;1729391;82;24441;-85
2021/08/11 10:51:46;;;;;;;;;;;;;;;25.02;58.68;98412.67;1735627;82;20240;-85
2021/08/11 10:54:13;;;;;;;;;;;;;;;24.97;58.47;98413.27;1743384;82;25869;-85
2021/08/11 10:56:44;;;;;;;;;;;;;;;24.97;58.30;98413.27;1734488;80;22149;-86
2021/08/11 10:59:12;;;;;;;;;;;;;;;24.97;58.09;98419.97;1732263;82;26058;-85
2021/08/11 11:01:41;;;;;;;;;;;;;;;24.97;57.87;98420.48;1708776;82;25704;-85
2021/08/11 11:04:07;;;;;;;;;;;;;;;25.03;57.75;98419.69;1727332;81;20168;-86
2021/08/11 11:06:53;;;;;;;;;;;;;;;25.15;57.77;98422.63;1737067;81;25374;-85
2021/08/11 11:09:23;;;;;;;;;;;;;;;25.30;57.82;98417.94;1731380;82;22193;-85
2021/08/11 11:11:49;;;;;;;;;;;;;;;25.37;57.58;98412.89;1731109;82;26019;-85
2021/08/11 11:14:33;;;;;;;;;;;;;;;25.48;57.45;98407.45;1739109;82;24510;-85
2021/08/11 11:17:05;;;;;;;;;;;;;;;25.55;57.18;98408.31;1740873;81;20243;-85
2021/08/11 11:19:38;;;;;;;;;;;;;;;25.62;56.91;98404.34;1742703;80;24966;-86
2021/08/11 11:22:05;;;;;;;;;;;;;;;25.64;56.54;98411.67;1729716;81;22065;-85
2021/08/11 11:27:39;;;;;;;;;;;;;;;25.63;55.80;98401.97;1750746;81;24699;-85
2021/08/11 11:30:06;;;;;;;;;;;;;;;25.66;55.44;98401.55;1750006;81;20301;-85
2021/08/11 11:32:32;;;;;;;;;;;;;;;25.81;55.36;98399.00;1751121;81;24985;-85
2021/08/11 11:35:03;;;;;;;;;;;;;;;25.99;55.18;98394.88;1751227;81;21976;-85
2021/08/11 11:37:30;;;;;;;;;;;;;;;26.11;54.83;98401.29;1735782;81;26089;-85
2021/08/11 11:39:58;;;;;;;;;;;;;;;26.14;54.47;98391.47;1751854;81;24510;-85
2021/08/11 11:42:25;;;;;;;;;;;;;;;26.06;54.02;98389.02;1750791;81;20247;-86
2021/08/11 11:45:00;;;;;;;;;;;;;;;26.03;53.68;98386.22;1751606;81;24928;-85
2021/08/11 11:47:41;;;;;;;;;;;;;;;26.22;53.71;98386.77;1753069;81;22037;-88
2021/08/11 11:50:22;;;;;;;;;;;;;;;26.40;53.50;98392.02;1749750;81;26070;-88
2021/08/11 11:52:53;;;;;;;;;;;;;;;26.39;53.28;98394.39;1752298;81;24517;-88
2021/08/11 11:55:35;;;;;;;;;;;;;;;26.42;53.12;98407.37;1751048;81;20268;-87
2021/08/11 11:58:03;;;;;;;;;;;;;;;26.30;52.85;98407.69;1753778;81;25028;-89
2021/08/11 12:00:29;;;;;;;;;;;;;;;26.16;52.60;98407.69;1749093;81;21991;-88
2021/08/11 12:03:02;;;;;;;;;;;;;;;26.09;52.48;98411.39;1751121;81;25927;-87
2021/08/11 12:05:32;;;;;;;;;;;;;;;26.02;52.48;98406.02;1753912;81;24475;-87
2021/08/11 12:08:00;;;;;;;;;;;;;;;25.90;52.24;98406.34;1736428;81;20227;-84
2021/08/11 12:10:27;;;;;;;;;;;;;;;25.88;52.20;98404.37;1753129;81;24959;-85
2021/08/11 12:13:04;;;;;;;;;;;;;;;25.88;52.05;98408.39;1755096;81;22063;-84
2021/08/11 12:15:34;;;;;;;;;;;;;;;25.93;51.98;98407.26;1753018;81;25955;-85
2021/08/11 12:18:01;;;;;;;;;;;;;;;25.91;51.79;98403.98;1750215;81;24535;-85
2021/08/11 12:20:29;;;;;;;;;;;;;;;25.83;51.61;98408.19;1749074;81;20284;-85
2021/08/11 12:22:56;;;;;;;;;;;;;;;25.88;51.61;98400.34;1753318;81;24987;-85
2021/08/11 12:25:24;;;;;;;;;;;;;;;26.09;51.75;98398.80;1715330;81;20174;-85
2021/08/11 12:28:12;;;;;;;;;;;;;;;26.23;51.77;98405.03;1741540;82;25411;-85
2021/08/11 12:30:44;;;;;;;;;;;;;;;26.28;51.67;98412.45;1740362;82;24468;-85
2021/08/11 12:33:11;;;;;;;;;;;;;;;26.24;51.49;98403.98;1755830;80;20443;-85
2021/08/11 12:35:41;;;;;;;;;;;;;;;26.35;51.47;98408.72;1733518;82;25003;-85
2021/08/11 12:38:07;;;;;;;;;;;;;;;26.29;51.26;98405.55;1705050;82;21997;-85
2021/08/11 12:40:37;;;;;;;;;;;;;;;26.19;50.96;98406.43;1712983;82;26055;-85
2021/08/11 12:43:04;;;;;;;;;;;;;;;26.24;50.91;98403.98;1738040;82;24423;-85
2021/08/11 12:45:52;;;;;;;;;;;;;;;26.20;50.77;98407.57;1735225;81;20326;-85
2021/08/11 12:48:29;;;;;;;;;;;;;;;26.22;50.78;98406.03;1736495;82;25038;-85
2021/08/11 12:50:56;;;;;;;;;;;;;;;26.18;50.60;98406.14;1714415;81;21992;-85
2021/08/11 12:53:26;;;;;;;;;;;;;;;26.22;50.59;98397.50;1752480;81;26038;-85
2021/08/11 12:56:07;;;;;;;;;;;;;;;26.23;50.45;98395.64;1720063;81;24544;-85
2021/08/11 12:58:51;;;;;;;;;;;;;;;26.23;50.36;98395.64;1722247;83;20208;-86